sensor_id;sensor_type;location;lat;lon;timestamp;temperature;humidity
15386;DHT22;7791;47.246;9.648;2023-03-16T00:01:45;0.90;99.90
15386;DHT22;7791;47.246;9.648;2023-03-16T00:04:12;0.80;99.90
15386;DHT22;7791;47.246;9.648;2023-03-16T00:06:40;0.60;99.90
15386;DHT22;7791;47.246;9.648;2023-03-16T00:12:13;0.30;99.90
15386;DHT22;7791;47.246;9.648;2023-03-16T00:14:40;0.20;99.90
15386;DHT22;7791;47.246;9.648;2023-03-16T00:17:08;0.10;99.90
15386;DHT22;7791;47.246;9.648;2023-03-16T00:19:34;0.10;99.90
15386;DHT22;7791;47.246;9.648;2023-03-16T00:22:02;0.00;99.90
15386;DHT22;7791;47.246;9.648;2023-03-16T00:31:06;-0.30;99.90
15386;DHT22;7791;47.246;9.648;2023-03-16T00:33:33;-0.30;99.90
15386;DHT22;7791;47.246;9.648;2023-03-16T00:36:00;-0.30;99.90
15386;DHT22;7791;47.246;9.648;2023-03-16T00:38:29;-0.30;99.90
15386;DHT22;7791;47.246;9.648;2023-03-16T00:40:56;-0.30;99.90
15386;DHT22;7791;47.246;9.648;2023-03-16T00:43:22;-0.20;99.90
15386;DHT22;7791;47.246;9.648;2023-03-16T00:45:49;-0.10;99.90
15386;DHT22;7791;47.246;9.648;2023-03-16T00:48:19;0.00;99.90
15386;DHT22;7791;47.246;9.648;2023-03-16T00:50:52;0.10;99.90
15386;DHT22;7791;47.246;9.648;2023-03-16T00:53:23;0.10;99.90
15386;DHT22;7791;47.246;9.648;2023-03-16T00:58:52;0.00;99.90
15386;DHT22;7791;47.246;9.648;2023-03-16T01:01:19;-0.20;99.90
15386;DHT22;7791;47.246;9.648;2023-03-16T01:03:48;-0.30;99.90
15386;DHT22;7791;47.246;9.648;2023-03-16T01:06:15;-0.40;99.90
15386;DHT22;7791;47.246;9.648;2023-03-16T01:08:42;-0.50;99.90
15386;DHT22;7791;47.246;9.648;2023-03-16T01:11:09;-0.50;99.90
15386;DHT22;7791;47.246;9.648;2023-03-16T01:13:38;-0.60;99.90
15386;DHT22;7791;47.246;9.648;2023-03-16T01:16:09;-0.60;99.90
15386;DHT22;7791;47.246;9.648;2023-03-16T01:18:36;-0.60;99.90
15386;DHT22;7791;47.246;9.648;2023-03-16T01:21:07;-0.60;99.90
15386;DHT22;7791;47.246;9.648;2023-03-16T01:23:34;-0.70;99.90
15386;DHT22;7791;47.246;9.648;2023-03-16T01:26:01;-0.60;99.90
15386;DHT22;7791;47.246;9.648;2023-03-16T01:34:37;-0.40;99.90
15386;DHT22;7791;47.246;9.648;2023-03-16T01:37:05;-0.40;99.90
15386;DHT22;7791;47.246;9.648;2023-03-16T01:39:31;-0.40;99.90
15386;DHT22;7791;47.246;9.648;2023-03-16T01:41:58;-0.50;99.90
15386;DHT22;7791;47.246;9.648;2023-03-16T01:50:31;-0.80;99.90
15386;DHT22;7791;47.246;9.648;2023-03-16T01:52:59;-0.80;99.90
15386;DHT22;7791;47.246;9.648;2023-03-16T01:55:26;-0.90;99.90
15386;DHT22;7791;47.246;9.648;2023-03-16T01:57:54;-0.70;99.90
15386;DHT22;7791;47.246;9.648;2023-03-16T02:00:20;-0.50;99.90
15386;DHT22;7791;47.246;9.648;2023-03-16T02:02:50;-0.30;99.90
15386;DHT22;7791;47.246;9.648;2023-03-16T02:05:22;-0.10;99.90
15386;DHT22;7791;47.246;9.648;2023-03-16T02:07:51;-0.20;99.90
15386;DHT22;7791;47.246;9.648;2023-03-16T02:10:20;-0.30;99.90
15386;DHT22;7791;47.246;9.648;2023-03-16T02:12:47;-0.40;99.90
15386;DHT22;7791;47.246;9.648;2023-03-16T02:15:14;-0.50;99.90
15386;DHT22;7791;47.246;9.648;2023-03-16T02:17:42;-0.50;99.90
15386;DHT22;7791;47.246;9.648;2023-03-16T02:20:18;-0.60;99.90
15386;DHT22;7791;47.246;9.648;2023-03-16T02:22:53;-0.70;99.90
15386;DHT22;7791;47.246;9.648;2023-03-16T02:25:24;-0.70;99.90
15386;DHT22;7791;47.246;9.648;2023-03-16T02:27:56;-0.70;99.90
15386;DHT22;7791;47.246;9.648;2023-03-16T02:30:27;-0.80;99.90
15386;DHT22;7791;47.246;9.648;2023-03-16T02:32:54;-0.80;99.90
15386;DHT22;7791;47.246;9.648;2023-03-16T02:35:22;-0.80;99.90
15386;DHT22;7791;47.246;9.648;2023-03-16T02:37:48;-0.80;99.90
15386;DHT22;7791;47.246;9.648;2023-03-16T02:40:19;-0.80;99.90
15386;DHT22;7791;47.246;9.648;2023-03-16T02:42:48;-0.90;99.90
15386;DHT22;7791;47.246;9.648;2023-03-16T02:45:17;-1.00;99.90
15386;DHT22;7791;47.246;9.648;2023-03-16T02:47:48;-1.00;99.90
15386;DHT22;7791;47.246;9.648;2023-03-16T02:50:14;-1.10;99.90
15386;DHT22;7791;47.246;9.648;2023-03-16T02:52:40;-1.10;99.90
15386;DHT22;7791;47.246;9.648;2023-03-16T02:55:09;-1.00;99.90
15386;DHT22;7791;47.246;9.648;2023-03-16T02:57:35;-0.90;99.90
15386;DHT22;7791;47.246;9.648;2023-03-16T03:00:03;-0.80;99.90
15386;DHT22;7791;47.246;9.648;2023-03-16T03:02:31;-0.80;99.90
15386;DHT22;7791;47.246;9.648;2023-03-16T03:05:00;-0.70;99.90
15386;DHT22;7791;47.246;9.648;2023-03-16T03:07:28;-0.60;99.90
15386;DHT22;7791;47.246;9.648;2023-03-16T03:09:54;-0.60;99.90
15386;DHT22;7791;47.246;9.648;2023-03-16T03:12:20;-0.50;99.90
15386;DHT22;7791;47.246;9.648;2023-03-16T03:14:49;-0.50;99.90
15386;DHT22;7791;47.246;9.648;2023-03-16T03:17:15;-0.40;99.90
15386;DHT22;7791;47.246;9.648;2023-03-16T03:19:44;-0.40;99.90
15386;DHT22;7791;47.246;9.648;2023-03-16T03:22:12;-0.30;99.90
15386;DHT22;7791;47.246;9.648;2023-03-16T03:24:38;-0.30;99.90
15386;DHT22;7791;47.246;9.648;2023-03-16T03:27:09;-0.20;99.90
15386;DHT22;7791;47.246;9.648;2023-03-16T03:29:35;-0.30;99.90
15386;DHT22;7791;47.246;9.648;2023-03-16T03:32:02;-0.30;99.90
15386;DHT22;7791;47.246;9.648;2023-03-16T03:34:34;-0.30;99.90
15386;DHT22;7791;47.246;9.648;2023-03-16T03:37:02;-0.30;99.90
15386;DHT22;7791;47.246;9.648;2023-03-16T03:39:31;-0.20;99.90
15386;DHT22;7791;47.246;9.648;2023-03-16T03:41:57;-0.20;99.90
15386;DHT22;7791;47.246;9.648;2023-03-16T03:44:23;-0.30;99.90
15386;DHT22;7791;47.246;9.648;2023-03-16T03:46:50;-0.30;99.90
15386;DHT22;7791;47.246;9.648;2023-03-16T03:49:16;-0.30;99.90
15386;DHT22;7791;47.246;9.648;2023-03-16T03:51:42;-0.40;99.90
15386;DHT22;7791;47.246;9.648;2023-03-16T03:54:12;-0.60;99.90
15386;DHT22;7791;47.246;9.648;2023-03-16T03:56:40;-0.80;99.90
15386;DHT22;7791;47.246;9.648;2023-03-16T03:59:06;-1.00;99.90
15386;DHT22;7791;47.246;9.648;2023-03-16T04:01:32;-1.10;99.90
15386;DHT22;7791;47.246;9.648;2023-03-16T04:03:59;-1.20;99.90
15386;DHT22;7791;47.246;9.648;2023-03-16T04:06:30;-1.20;99.90
15386;DHT22;7791;47.246;9.648;2023-03-16T04:09:02;-1.30;99.90
15386;DHT22;7791;47.246;9.648;2023-03-16T04:11:34;-1.40;99.90
15386;DHT22;7791;47.246;9.648;2023-03-16T04:14:03;-1.30;99.90
15386;DHT22;7791;47.246;9.648;2023-03-16T04:16:29;-1.20;99.90
15386;DHT22;7791;47.246;9.648;2023-03-16T04:18:59;-1.20;99.90
15386;DHT22;7791;47.246;9.648;2023-03-16T04:21:59;-1.20;99.90
15386;DHT22;7791;47.246;9.648;2023-03-16T04:24:25;-1.30;99.90
15386;DHT22;7791;47.246;9.648;2023-03-16T04:26:53;-1.40;99.90
15386;DHT22;7791;47.246;9.648;2023-03-16T04:29:20;-1.40;99.90
15386;DHT22;7791;47.246;9.648;2023-03-16T04:31:46;-1.40;99.90
15386;DHT22;7791;47.246;9.648;2023-03-16T04:34:13;-1.50;99.90
15386;DHT22;7791;47.246;9.648;2023-03-16T04:36:39;-1.50;99.90
15386;DHT22;7791;47.246;9.648;2023-03-16T04:39:05;-1.60;99.90
15386;DHT22;7791;47.246;9.648;2023-03-16T04:41:32;-1.70;99.90
15386;DHT22;7791;47.246;9.648;2023-03-16T04:43:58;-1.80;99.90
15386;DHT22;7791;47.246;9.648;2023-03-16T04:46:26;-1.80;99.90
15386;DHT22;7791;47.246;9.648;2023-03-16T04:48:53;-1.90;99.90
15386;DHT22;7791;47.246;9.648;2023-03-16T04:51:20;-1.80;99.90
15386;DHT22;7791;47.246;9.648;2023-03-16T04:53:46;-1.70;99.90
15386;DHT22;7791;47.246;9.648;2023-03-16T04:56:15;-1.60;99.90
15386;DHT22;7791;47.246;9.648;2023-03-16T04:58:41;-1.50;99.90
15386;DHT22;7791;47.246;9.648;2023-03-16T05:01:07;-1.50;99.90
15386;DHT22;7791;47.246;9.648;2023-03-16T05:03:34;-1.50;99.90
15386;DHT22;7791;47.246;9.648;2023-03-16T05:06:00;-1.50;99.90
15386;DHT22;7791;47.246;9.648;2023-03-16T05:08:29;-1.60;99.90
15386;DHT22;7791;47.246;9.648;2023-03-16T05:10:56;-1.60;99.90
15386;DHT22;7791;47.246;9.648;2023-03-16T05:13:23;-1.60;99.90
15386;DHT22;7791;47.246;9.648;2023-03-16T05:15:50;-1.50;99.90
15386;DHT22;7791;47.246;9.648;2023-03-16T05:18:16;-1.50;99.90
15386;DHT22;7791;47.246;9.648;2023-03-16T05:20:50;-1.50;99.90
15386;DHT22;7791;47.246;9.648;2023-03-16T05:23:16;-1.40;99.90
15386;DHT22;7791;47.246;9.648;2023-03-16T05:25:44;-1.40;99.90
15386;DHT22;7791;47.246;9.648;2023-03-16T05:28:11;-1.30;99.90
15386;DHT22;7791;47.246;9.648;2023-03-16T05:30:40;-1.30;99.90
15386;DHT22;7791;47.246;9.648;2023-03-16T05:33:07;-1.30;99.90
15386;DHT22;7791;47.246;9.648;2023-03-16T05:35:34;-1.30;99.90
15386;DHT22;7791;47.246;9.648;2023-03-16T05:38:02;-1.30;99.90
15386;DHT22;7791;47.246;9.648;2023-03-16T05:40:31;-1.40;99.90
15386;DHT22;7791;47.246;9.648;2023-03-16T05:42:59;-1.50;99.90
15386;DHT22;7791;47.246;9.648;2023-03-16T05:45:27;-1.50;99.90
15386;DHT22;7791;47.246;9.648;2023-03-16T05:47:53;-1.50;99.90
15386;DHT22;7791;47.246;9.648;2023-03-16T05:50:19;-1.50;99.90
15386;DHT22;7791;47.246;9.648;2023-03-16T05:52:46;-1.50;99.90
15386;DHT22;7791;47.246;9.648;2023-03-16T05:55:24;-1.40;99.90
15386;DHT22;7791;47.246;9.648;2023-03-16T05:57:52;-1.30;99.90
15386;DHT22;7791;47.246;9.648;2023-03-16T06:00:19;-1.30;99.90
15386;DHT22;7791;47.246;9.648;2023-03-16T06:02:48;-1.20;99.90
15386;DHT22;7791;47.246;9.648;2023-03-16T06:05:15;-1.20;99.90
15386;DHT22;7791;47.246;9.648;2023-03-16T06:07:42;-1.20;99.90
15386;DHT22;7791;47.246;9.648;2023-03-16T06:10:10;-1.20;99.90
15386;DHT22;7791;47.246;9.648;2023-03-16T06:12:39;-1.10;99.90
15386;DHT22;7791;47.246;9.648;2023-03-16T06:15:08;-1.10;99.90
15386;DHT22;7791;47.246;9.648;2023-03-16T06:17:39;-1.10;99.90
15386;DHT22;7791;47.246;9.648;2023-03-16T06:20:10;-1.10;99.90
15386;DHT22;7791;47.246;9.648;2023-03-16T06:22:46;-1.00;99.90
15386;DHT22;7791;47.246;9.648;2023-03-16T06:25:14;-1.00;99.90
15386;DHT22;7791;47.246;9.648;2023-03-16T06:27:45;-0.90;99.90
15386;DHT22;7791;47.246;9.648;2023-03-16T06:30:13;-0.70;99.90
15386;DHT22;7791;47.246;9.648;2023-03-16T06:32:40;-0.70;99.90
15386;DHT22;7791;47.246;9.648;2023-03-16T06:35:07;-0.50;99.90
15386;DHT22;7791;47.246;9.648;2023-03-16T06:37:34;-0.40;99.90
15386;DHT22;7791;47.246;9.648;2023-03-16T06:40:01;-0.40;99.90
15386;DHT22;7791;47.246;9.648;2023-03-16T06:42:31;-0.40;99.90
15386;DHT22;7791;47.246;9.648;2023-03-16T06:44:59;-0.40;99.90
15386;DHT22;7791;47.246;9.648;2023-03-16T06:47:26;-0.30;99.90
15386;DHT22;7791;47.246;9.648;2023-03-16T06:49:52;-0.20;99.90
15386;DHT22;7791;47.246;9.648;2023-03-16T06:52:19;0.00;99.90
15386;DHT22;7791;47.246;9.648;2023-03-16T06:54:46;0.10;99.90
15386;DHT22;7791;47.246;9.648;2023-03-16T06:57:14;0.20;99.90
15386;DHT22;7791;47.246;9.648;2023-03-16T07:00:09;0.20;99.90
15386;DHT22;7791;47.246;9.648;2023-03-16T07:02:37;0.40;99.90
15386;DHT22;7791;47.246;9.648;2023-03-16T07:05:05;0.40;99.90
15386;DHT22;7791;47.246;9.648;2023-03-16T07:07:41;0.40;99.90
15386;DHT22;7791;47.246;9.648;2023-03-16T07:10:10;0.20;99.90
15386;DHT22;7791;47.246;9.648;2023-03-16T07:12:37;0.00;99.90
15386;DHT22;7791;47.246;9.648;2023-03-16T07:15:07;0.00;99.90
15386;DHT22;7791;47.246;9.648;2023-03-16T07:17:36;0.10;99.90
15386;DHT22;7791;47.246;9.648;2023-03-16T07:20:04;0.20;99.90
15386;DHT22;7791;47.246;9.648;2023-03-16T07:22:30;0.30;99.90
15386;DHT22;7791;47.246;9.648;2023-03-16T07:24:56;1.00;99.90
15386;DHT22;7791;47.246;9.648;2023-03-16T07:27:22;2.50;99.90
15386;DHT22;7791;47.246;9.648;2023-03-16T07:35:55;8.80;99.90
15386;DHT22;7791;47.246;9.648;2023-03-16T07:38:23;10.50;99.90
15386;DHT22;7791;47.246;9.648;2023-03-16T07:40:49;11.60;99.20
15386;DHT22;7791;47.246;9.648;2023-03-16T07:43:15;13.00;97.90
15386;DHT22;7791;47.246;9.648;2023-03-16T07:57:55;15.00;83.30
15386;DHT22;7791;47.246;9.648;2023-03-16T08:00:22;14.50;86.00
15386;DHT22;7791;47.246;9.648;2023-03-16T08:03:17;14.00;83.00
15386;DHT22;7791;47.246;9.648;2023-03-16T08:05:45;13.50;84.80
15386;DHT22;7791;47.246;9.648;2023-03-16T08:08:15;13.10;86.40
15386;DHT22;7791;47.246;9.648;2023-03-16T08:10:45;13.10;86.00
15386;DHT22;7791;47.246;9.648;2023-03-16T08:13:18;13.10;82.40
15386;DHT22;7791;47.246;9.648;2023-03-16T08:15:50;12.90;86.70
15386;DHT22;7791;47.246;9.648;2023-03-16T08:18:27;13.00;81.40
15386;DHT22;7791;47.246;9.648;2023-03-16T08:20:56;13.40;80.80
15386;DHT22;7791;47.246;9.648;2023-03-16T08:23:24;13.80;82.90
15386;DHT22;7791;47.246;9.648;2023-03-16T08:25:54;13.90;77.70
15386;DHT22;7791;47.246;9.648;2023-03-16T08:28:27;14.20;81.70
15386;DHT22;7791;47.246;9.648;2023-03-16T08:30:54;15.10;78.30
15386;DHT22;7791;47.246;9.648;2023-03-16T08:33:42;15.60;77.50
15386;DHT22;7791;47.246;9.648;2023-03-16T08:36:17;16.50;75.90
15386;DHT22;7791;47.246;9.648;2023-03-16T08:38:53;16.90;72.50
15386;DHT22;7791;47.246;9.648;2023-03-16T08:44:39;17.10;69.00
15386;DHT22;7791;47.246;9.648;2023-03-16T08:47:24;16.60;70.20
15386;DHT22;7791;47.246;9.648;2023-03-16T08:53:00;16.70;68.00
15386;DHT22;7791;47.246;9.648;2023-03-16T08:55:28;17.50;64.40
15386;DHT22;7791;47.246;9.648;2023-03-16T08:57:55;18.40;63.40
15386;DHT22;7791;47.246;9.648;2023-03-16T09:00:23;19.10;60.40
15386;DHT22;7791;47.246;9.648;2023-03-16T09:02:59;19.40;60.10
15386;DHT22;7791;47.246;9.648;2023-03-16T09:05:33;19.80;59.70
15386;DHT22;7791;47.246;9.648;2023-03-16T09:08:00;19.50;56.20
15386;DHT22;7791;47.246;9.648;2023-03-16T09:10:29;19.40;58.00
15386;DHT22;7791;47.246;9.648;2023-03-16T09:12:56;19.30;57.60
15386;DHT22;7791;47.246;9.648;2023-03-16T09:15:25;18.00;59.00
15386;DHT22;7791;47.246;9.648;2023-03-16T09:17:57;17.80;58.80
15386;DHT22;7791;47.246;9.648;2023-03-16T09:26:34;19.30;58.40
15386;DHT22;7791;47.246;9.648;2023-03-16T09:29:04;18.70;60.00
15386;DHT22;7791;47.246;9.648;2023-03-16T09:31:41;18.10;60.40
15386;DHT22;7791;47.246;9.648;2023-03-16T09:34:10;17.90;62.30
15386;DHT22;7791;47.246;9.648;2023-03-16T09:36:40;18.10;61.90
15386;DHT22;7791;47.246;9.648;2023-03-16T09:39:10;17.90;61.90
15386;DHT22;7791;47.246;9.648;2023-03-16T09:41:49;17.30;60.20
15386;DHT22;7791;47.246;9.648;2023-03-16T09:44:29;16.60;62.60
15386;DHT22;7791;47.246;9.648;2023-03-16T09:47:07;16.40;60.30
15386;DHT22;7791;47.246;9.648;2023-03-16T09:49:44;17.30;56.70
15386;DHT22;7791;47.246;9.648;2023-03-16T09:52:24;18.30;57.80
15386;DHT22;7791;47.246;9.648;2023-03-16T09:54:58;18.40;54.90
15386;DHT22;7791;47.246;9.648;2023-03-16T09:57:27;19.00;55.30
15386;DHT22;7791;47.246;9.648;2023-03-16T09:59:56;16.80;55.90
15386;DHT22;7791;47.246;9.648;2023-03-16T10:02:54;16.40;58.40
15386;DHT22;7791;47.246;9.648;2023-03-16T10:05:26;16.10;61.00
15386;DHT22;7791;47.246;9.648;2023-03-16T10:11:04;18.20;58.50
15386;DHT22;7791;47.246;9.648;2023-03-16T10:13:56;19.10;54.80
15386;DHT22;7791;47.246;9.648;2023-03-16T10:16:26;20.00;56.30
15386;DHT22;7791;47.246;9.648;2023-03-16T10:19:06;20.60;52.90
15386;DHT22;7791;47.246;9.648;2023-03-16T10:21:39;20.80;53.60
15386;DHT22;7791;47.246;9.648;2023-03-16T10:33:22;20.50;50.80
15386;DHT22;7791;47.246;9.648;2023-03-16T10:36:01;19.60;49.90
15386;DHT22;7791;47.246;9.648;2023-03-16T10:38:42;20.20;49.80
15386;DHT22;7791;47.246;9.648;2023-03-16T10:41:53;19.30;51.10
15386;DHT22;7791;47.246;9.648;2023-03-16T10:44:27;20.50;50.80
15386;DHT22;7791;47.246;9.648;2023-03-16T10:47:03;20.90;51.40
15386;DHT22;7791;47.246;9.648;2023-03-16T10:49:35;20.30;50.90
15386;DHT22;7791;47.246;9.648;2023-03-16T10:58:31;20.90;50.40
15386;DHT22;7791;47.246;9.648;2023-03-16T11:01:01;21.40;49.80
15386;DHT22;7791;47.246;9.648;2023-03-16T11:03:36;19.40;52.50
15386;DHT22;7791;47.246;9.648;2023-03-16T11:06:04;18.80;52.80
15386;DHT22;7791;47.246;9.648;2023-03-16T11:08:36;18.70;52.50
15386;DHT22;7791;47.246;9.648;2023-03-16T11:11:13;18.50;53.00
15386;DHT22;7791;47.246;9.648;2023-03-16T11:13:47;19.70;52.70
15386;DHT22;7791;47.246;9.648;2023-03-16T11:16:33;19.20;53.80
15386;DHT22;7791;47.246;9.648;2023-03-16T11:19:10;18.30;57.30
15386;DHT22;7791;47.246;9.648;2023-03-16T11:21:42;16.00;58.10
15386;DHT22;7791;47.246;9.648;2023-03-16T11:24:17;15.40;62.10
15386;DHT22;7791;47.246;9.648;2023-03-16T11:26:57;16.10;58.60
15386;DHT22;7791;47.246;9.648;2023-03-16T11:29:31;17.00;57.10
15386;DHT22;7791;47.246;9.648;2023-03-16T11:32:09;16.00;58.20
15386;DHT22;7791;47.246;9.648;2023-03-16T11:34:38;16.00;60.00
15386;DHT22;7791;47.246;9.648;2023-03-16T11:37:13;16.70;59.90
15386;DHT22;7791;47.246;9.648;2023-03-16T11:39:50;17.20;60.10
15386;DHT22;7791;47.246;9.648;2023-03-16T11:42:38;17.50;57.20
15386;DHT22;7791;47.246;9.648;2023-03-16T11:45:18;18.50;54.90
15386;DHT22;7791;47.246;9.648;2023-03-16T11:48:14;18.10;55.70
15386;DHT22;7791;47.246;9.648;2023-03-16T11:51:03;17.80;55.10
15386;DHT22;7791;47.246;9.648;2023-03-16T11:56:30;17.90;58.70
15386;DHT22;7791;47.246;9.648;2023-03-16T11:59:30;18.40;57.70
15386;DHT22;7791;47.246;9.648;2023-03-16T12:02:32;17.20;55.50
15386;DHT22;7791;47.246;9.648;2023-03-16T12:05:36;16.30;58.20
15386;DHT22;7791;47.246;9.648;2023-03-16T12:08:24;16.60;56.70
15386;DHT22;7791;47.246;9.648;2023-03-16T12:10:58;16.40;56.10
15386;DHT22;7791;47.246;9.648;2023-03-16T12:13:39;16.20;56.30
15386;DHT22;7791;47.246;9.648;2023-03-16T12:19:16;15.80;54.80
15386;DHT22;7791;47.246;9.648;2023-03-16T12:21:51;15.70;56.40
15386;DHT22;7791;47.246;9.648;2023-03-16T12:24:22;15.70;55.00
15386;DHT22;7791;47.246;9.648;2023-03-16T12:26:54;16.10;55.30
15386;DHT22;7791;47.246;9.648;2023-03-16T12:29:31;16.40;54.10
15386;DHT22;7791;47.246;9.648;2023-03-16T12:32:12;16.10;56.60
15386;DHT22;7791;47.246;9.648;2023-03-16T12:34:54;16.80;53.40
15386;DHT22;7791;47.246;9.648;2023-03-16T12:37:42;16.70;53.00
15386;DHT22;7791;47.246;9.648;2023-03-16T12:40:24;17.50;55.40
15386;DHT22;7791;47.246;9.648;2023-03-16T12:43:05;17.30;56.30
15386;DHT22;7791;47.246;9.648;2023-03-16T12:45:46;16.90;58.30
15386;DHT22;7791;47.246;9.648;2023-03-16T12:48:23;17.30;56.40
15386;DHT22;7791;47.246;9.648;2023-03-16T12:51:14;17.50;56.30
15386;DHT22;7791;47.246;9.648;2023-03-16T12:53:56;17.30;54.60
15386;DHT22;7791;47.246;9.648;2023-03-16T12:56:42;17.30;56.30
15386;DHT22;7791;47.246;9.648;2023-03-16T12:59:23;16.80;54.00
15386;DHT22;7791;47.246;9.648;2023-03-16T13:08:18;17.00;55.20
15386;DHT22;7791;47.246;9.648;2023-03-16T13:11:03;16.80;52.50
15386;DHT22;7791;47.246;9.648;2023-03-16T13:13:31;17.10;56.20
15386;DHT22;7791;47.246;9.648;2023-03-16T13:16:08;16.60;54.10
15386;DHT22;7791;47.246;9.648;2023-03-16T13:18:57;16.30;56.40
15386;DHT22;7791;47.246;9.648;2023-03-16T13:24:35;16.50;54.20
15386;DHT22;7791;47.246;9.648;2023-03-16T13:27:14;16.50;56.90
15386;DHT22;7791;47.246;9.648;2023-03-16T13:29:53;16.60;57.40
15386;DHT22;7791;47.246;9.648;2023-03-16T13:32:34;16.70;62.00
15386;DHT22;7791;47.246;9.648;2023-03-16T13:38:13;17.50;58.60
15386;DHT22;7791;47.246;9.648;2023-03-16T13:41:11;17.60;55.60
15386;DHT22;7791;47.246;9.648;2023-03-16T13:43:53;17.60;56.70
15386;DHT22;7791;47.246;9.648;2023-03-16T13:46:28;17.10;56.30
15386;DHT22;7791;47.246;9.648;2023-03-16T13:49:13;17.00;59.10
15386;DHT22;7791;47.246;9.648;2023-03-16T13:52:01;16.30;58.90
15386;DHT22;7791;47.246;9.648;2023-03-16T13:54:38;15.80;59.30
15386;DHT22;7791;47.246;9.648;2023-03-16T13:57:22;15.60;65.20
15386;DHT22;7791;47.246;9.648;2023-03-16T14:00:12;15.90;62.70
15386;DHT22;7791;47.246;9.648;2023-03-16T14:05:52;15.60;59.80
15386;DHT22;7791;47.246;9.648;2023-03-16T14:08:31;15.60;61.30
15386;DHT22;7791;47.246;9.648;2023-03-16T14:11:24;15.50;59.70
15386;DHT22;7791;47.246;9.648;2023-03-16T14:16:52;15.60;61.00
15386;DHT22;7791;47.246;9.648;2023-03-16T14:19:26;15.50;60.00
15386;DHT22;7791;47.246;9.648;2023-03-16T14:22:02;15.40;60.80
15386;DHT22;7791;47.246;9.648;2023-03-16T14:24:46;15.20;64.80
15386;DHT22;7791;47.246;9.648;2023-03-16T14:30:48;15.30;62.50
15386;DHT22;7791;47.246;9.648;2023-03-16T14:33:31;15.20;60.70
15386;DHT22;7791;47.246;9.648;2023-03-16T14:36:21;15.20;61.40
15386;DHT22;7791;47.246;9.648;2023-03-16T14:39:19;15.10;63.00
15386;DHT22;7791;47.246;9.648;2023-03-16T14:42:00;15.20;62.90
15386;DHT22;7791;47.246;9.648;2023-03-16T14:47:30;15.50;66.40
15386;DHT22;7791;47.246;9.648;2023-03-16T14:53:13;15.30;66.40
15386;DHT22;7791;47.246;9.648;2023-03-16T14:55:41;15.40;65.40
15386;DHT22;7791;47.246;9.648;2023-03-16T14:58:10;15.30;65.10
15386;DHT22;7791;47.246;9.648;2023-03-16T15:00:52;15.10;64.70
15386;DHT22;7791;47.246;9.648;2023-03-16T15:03:22;14.90;66.40
15386;DHT22;7791;47.246;9.648;2023-03-16T15:05:54;14.90;67.20
15386;DHT22;7791;47.246;9.648;2023-03-16T15:08:28;14.80;68.60
15386;DHT22;7791;47.246;9.648;2023-03-16T15:10:59;14.60;69.00
15386;DHT22;7791;47.246;9.648;2023-03-16T15:13:32;14.80;69.90
15386;DHT22;7791;47.246;9.648;2023-03-16T15:19:05;14.70;69.30
15386;DHT22;7791;47.246;9.648;2023-03-16T15:21:32;14.60;68.80
15386;DHT22;7791;47.246;9.648;2023-03-16T15:24:10;14.40;68.60
15386;DHT22;7791;47.246;9.648;2023-03-16T15:26:41;14.40;68.20
15386;DHT22;7791;47.246;9.648;2023-03-16T15:29:16;14.30;69.60
15386;DHT22;7791;47.246;9.648;2023-03-16T15:34:53;14.00;70.10
15386;DHT22;7791;47.246;9.648;2023-03-16T15:37:21;14.00;70.70
15386;DHT22;7791;47.246;9.648;2023-03-16T15:39:56;13.80;71.30
15386;DHT22;7791;47.246;9.648;2023-03-16T15:42:25;13.60;73.10
15386;DHT22;7791;47.246;9.648;2023-03-16T15:44:52;13.40;73.20
15386;DHT22;7791;47.246;9.648;2023-03-16T15:47:18;13.30;75.00
15386;DHT22;7791;47.246;9.648;2023-03-16T15:49:54;13.20;74.90
15386;DHT22;7791;47.246;9.648;2023-03-16T15:52:26;13.20;74.60
15386;DHT22;7791;47.246;9.648;2023-03-16T15:55:05;13.20;76.90
15386;DHT22;7791;47.246;9.648;2023-03-16T15:57:31;13.10;79.80
15386;DHT22;7791;47.246;9.648;2023-03-16T15:59:58;13.00;78.00
15386;DHT22;7791;47.246;9.648;2023-03-16T16:02:28;13.00;79.80
15386;DHT22;7791;47.246;9.648;2023-03-16T16:04:54;13.00;79.90
15386;DHT22;7791;47.246;9.648;2023-03-16T16:07:20;13.00;81.40
15386;DHT22;7791;47.246;9.648;2023-03-16T16:09:46;12.90;81.30
15386;DHT22;7791;47.246;9.648;2023-03-16T16:12:14;12.80;80.70
15386;DHT22;7791;47.246;9.648;2023-03-16T16:14:46;12.70;82.70
15386;DHT22;7791;47.246;9.648;2023-03-16T16:17:14;12.60;83.60
15386;DHT22;7791;47.246;9.648;2023-03-16T16:19:49;12.50;83.90
15386;DHT22;7791;47.246;9.648;2023-03-16T16:22:18;12.30;83.90
15386;DHT22;7791;47.246;9.648;2023-03-16T16:24:46;12.30;83.70
15386;DHT22;7791;47.246;9.648;2023-03-16T16:27:14;12.10;86.10
15386;DHT22;7791;47.246;9.648;2023-03-16T16:29:40;12.00;85.60
15386;DHT22;7791;47.246;9.648;2023-03-16T16:32:21;11.90;87.10
15386;DHT22;7791;47.246;9.648;2023-03-16T16:34:48;11.90;87.20
15386;DHT22;7791;47.246;9.648;2023-03-16T16:37:15;11.90;89.20
15386;DHT22;7791;47.246;9.648;2023-03-16T16:39:41;11.70;90.70
15386;DHT22;7791;47.246;9.648;2023-03-16T16:42:16;11.50;90.80
15386;DHT22;7791;47.246;9.648;2023-03-16T16:44:43;11.20;92.70
15386;DHT22;7791;47.246;9.648;2023-03-16T16:47:17;11.00;92.90
15386;DHT22;7791;47.246;9.648;2023-03-16T16:49:44;10.90;92.70
15386;DHT22;7791;47.246;9.648;2023-03-16T16:58:19;10.30;94.20
15386;DHT22;7791;47.246;9.648;2023-03-16T17:00:49;10.20;94.90
15386;DHT22;7791;47.246;9.648;2023-03-16T17:03:37;10.10;95.90
15386;DHT22;7791;47.246;9.648;2023-03-16T17:06:42;9.80;97.00
15386;DHT22;7791;47.246;9.648;2023-03-16T17:09:27;9.60;97.70
15386;DHT22;7791;47.246;9.648;2023-03-16T17:12:00;9.30;99.40
15386;DHT22;7791;47.246;9.648;2023-03-16T17:22:58;8.50;99.90
15386;DHT22;7791;47.246;9.648;2023-03-16T17:31:41;7.90;99.90
15386;DHT22;7791;47.246;9.648;2023-03-16T17:34:23;7.70;99.90
15386;DHT22;7791;47.246;9.648;2023-03-16T17:36:52;7.60;99.90
15386;DHT22;7791;47.246;9.648;2023-03-16T17:39:23;7.50;99.90
15386;DHT22;7791;47.246;9.648;2023-03-16T17:41:55;7.50;99.90
15386;DHT22;7791;47.246;9.648;2023-03-16T17:44:24;7.30;99.90
15386;DHT22;7791;47.246;9.648;2023-03-16T17:46:51;7.30;99.90
15386;DHT22;7791;47.246;9.648;2023-03-16T17:49:17;7.20;99.90
15386;DHT22;7791;47.246;9.648;2023-03-16T17:51:47;7.10;99.90
15386;DHT22;7791;47.246;9.648;2023-03-16T17:54:14;6.90;99.90
15386;DHT22;7791;47.246;9.648;2023-03-16T17:56:50;6.80;99.90
15386;DHT22;7791;47.246;9.648;2023-03-16T18:05:25;6.50;99.90
15386;DHT22;7791;47.246;9.648;2023-03-16T18:07:53;6.40;99.90
15386;DHT22;7791;47.246;9.648;2023-03-16T18:10:23;6.30;99.90
15386;DHT22;7791;47.246;9.648;2023-03-16T18:12:56;6.20;99.90
15386;DHT22;7791;47.246;9.648;2023-03-16T18:15:34;6.20;99.90
15386;DHT22;7791;47.246;9.648;2023-03-16T18:18:16;6.00;99.90
15386;DHT22;7791;47.246;9.648;2023-03-16T18:21:08;5.90;99.90
15386;DHT22;7791;47.246;9.648;2023-03-16T18:27:30;5.80;99.90
15386;DHT22;7791;47.246;9.648;2023-03-16T18:30:17;5.80;99.90
15386;DHT22;7791;47.246;9.648;2023-03-16T18:32:56;5.90;99.90
15386;DHT22;7791;47.246;9.648;2023-03-16T18:35:36;5.90;99.90
15386;DHT22;7791;47.246;9.648;2023-03-16T18:38:08;5.80;99.90
15386;DHT22;7791;47.246;9.648;2023-03-16T18:40:46;5.90;99.90
15386;DHT22;7791;47.246;9.648;2023-03-16T18:43:17;5.70;99.90
15386;DHT22;7791;47.246;9.648;2023-03-16T18:46:24;5.50;99.90